Pagina principale
METAR-TAF:

METAR-TAF

Aeroporti :

Aeroporto di Ėlista

Ėlista, Russia

latitudine: 46-22N, longitudine: 044-20E, altezza: 150 m

Osservazione

Il bollettino è stato emesso 35 minuti fa, alle 14:30 UTC
Vento 6 kt da sud-ovest
Temperature 24°C
Umidità 24%
Pressione 1013 hPa
Visibilità 10 km o più
nessuna nube inferiore a 1500 m e nessun cumulonembo

METAR: URWI 161430Z 23003MPS CAVOK 24/02 Q1013 R27/010065 TEMPO 23005G10MPS

Ora: 18:05 (15:05 UTC)

Previsione

Il bollettino è stato emesso 1 ora e 5 minuti fa, alle 14:00 UTC
Previsione valida dal 16 alle 15 UTC al 16 alle 24 UTC
Vento 6 kt da ovest/sud-ovest con raffiche fino a 17 kt
Visibilità 10 km o più
Nubi sparse ad un'altezza di 3000 ft
Temporaneamente
dal 16 alle 15 UTC al 16 alle 18 UTC
Vento 12 kt da sud-ovest con raffiche fino a 25 kt

TAF: URWI 161400Z 1615/1624 24003G09MPS 9999 SCT030 TEMPO 1615/1618 22006G13MPS

Osservazioni e previsioni meteorologiche di più di 4000 aeroporti (messaggi METAR e TAF).

Le stazioni disponibili sono rappresentate dai dischi gialli e rossi sulla carta.

Puntare il mouse per vedere il nome della stazione.

Clicca sopra per visualizzare le osservazioni e previsioni meteorologiche.

Per cambiare la mappa : fare clic sui pulsanti verdi con una croce nera per ingrandire, il pulsante verde con un trattino per diminuire, o sulla freccia verde per le mappe adiacenti.


METAR-TAF: